sensor_id;sensor_type;location;lat;lon;timestamp;P1;durP1;ratioP1;P2;durP2;ratioP2
11681;SDS011;5897;42.640;23.310;2022-11-12T00:01:33;14.10;;;11.25;;
11681;SDS011;5897;42.640;23.310;2022-11-12T00:03:59;20.45;;;15.57;;
11681;SDS011;5897;42.640;23.310;2022-11-12T00:06:26;18.67;;;13.48;;
11681;SDS011;5897;42.640;23.310;2022-11-12T00:08:53;17.70;;;14.57;;
11681;SDS011;5897;42.640;23.310;2022-11-12T00:11:21;19.60;;;15.48;;
11681;SDS011;5897;42.640;23.310;2022-11-12T00:13:48;21.50;;;15.98;;
11681;SDS011;5897;42.640;23.310;2022-11-12T00:16:14;22.58;;;15.95;;
11681;SDS011;5897;42.640;23.310;2022-11-12T00:18:41;20.33;;;15.45;;
11681;SDS011;5897;42.640;23.310;2022-11-12T00:21:08;20.98;;;16.27;;
11681;SDS011;5897;42.640;23.310;2022-11-12T00:23:34;24.48;;;17.70;;
11681;SDS011;5897;42.640;23.310;2022-11-12T00:26:01;25.42;;;19.60;;
11681;SDS011;5897;42.640;23.310;2022-11-12T00:28:29;24.42;;;18.92;;
11681;SDS011;5897;42.640;23.310;2022-11-12T00:30:56;27.05;;;20.20;;
11681;SDS011;5897;42.640;23.310;2022-11-12T00:33:23;25.40;;;19.77;;
11681;SDS011;5897;42.640;23.310;2022-11-12T00:35:49;24.50;;;19.27;;
11681;SDS011;5897;42.640;23.310;2022-11-12T00:38:16;29.92;;;20.10;;
11681;SDS011;5897;42.640;23.310;2022-11-12T00:40:43;24.70;;;19.92;;
11681;SDS011;5897;42.640;23.310;2022-11-12T00:43:09;28.10;;;20.83;;
11681;SDS011;5897;42.640;23.310;2022-11-12T00:45:38;28.45;;;20.13;;
11681;SDS011;5897;42.640;23.310;2022-11-12T00:48:04;26.80;;;19.33;;
11681;SDS011;5897;42.640;23.310;2022-11-12T00:50:31;27.77;;;19.98;;
11681;SDS011;5897;42.640;23.310;2022-11-12T00:52:58;26.65;;;19.40;;
11681;SDS011;5897;42.640;23.310;2022-11-12T00:55:25;26.17;;;20.58;;
11681;SDS011;5897;42.640;23.310;2022-11-12T00:57:51;27.33;;;20.08;;
11681;SDS011;5897;42.640;23.310;2022-11-12T01:00:18;25.90;;;19.55;;
11681;SDS011;5897;42.640;23.310;2022-11-12T01:02:46;27.05;;;19.67;;
11681;SDS011;5897;42.640;23.310;2022-11-12T01:05:13;25.50;;;19.58;;
11681;SDS011;5897;42.640;23.310;2022-11-12T01:07:40;24.65;;;19.48;;
11681;SDS011;5897;42.640;23.310;2022-11-12T01:10:08;25.60;;;19.25;;
11681;SDS011;5897;42.640;23.310;2022-11-12T01:12:36;25.38;;;18.88;;
11681;SDS011;5897;42.640;23.310;2022-11-12T01:15:03;25.52;;;19.38;;
11681;SDS011;5897;42.640;23.310;2022-11-12T01:17:31;25.52;;;19.30;;
11681;SDS011;5897;42.640;23.310;2022-11-12T01:19:59;27.27;;;19.42;;
11681;SDS011;5897;42.640;23.310;2022-11-12T01:22:26;26.52;;;19.58;;
11681;SDS011;5897;42.640;23.310;2022-11-12T01:24:52;28.70;;;20.23;;
11681;SDS011;5897;42.640;23.310;2022-11-12T01:27:19;26.80;;;20.23;;
11681;SDS011;5897;42.640;23.310;2022-11-12T01:29:46;25.92;;;19.90;;
11681;SDS011;5897;42.640;23.310;2022-11-12T01:32:12;26.08;;;19.48;;
11681;SDS011;5897;42.640;23.310;2022-11-12T01:34:39;26.75;;;20.60;;
11681;SDS011;5897;42.640;23.310;2022-11-12T01:37:07;27.15;;;20.20;;
11681;SDS011;5897;42.640;23.310;2022-11-12T01:39:34;27.88;;;21.00;;
11681;SDS011;5897;42.640;23.310;2022-11-12T01:42:01;26.10;;;20.52;;
11681;SDS011;5897;42.640;23.310;2022-11-12T01:44:29;26.27;;;19.77;;
11681;SDS011;5897;42.640;23.310;2022-11-12T01:46:58;27.95;;;20.58;;
11681;SDS011;5897;42.640;23.310;2022-11-12T01:49:31;28.55;;;21.08;;
11681;SDS011;5897;42.640;23.310;2022-11-12T01:52:07;27.13;;;20.10;;
11681;SDS011;5897;42.640;23.310;2022-11-12T01:54:39;28.38;;;20.08;;
11681;SDS011;5897;42.640;23.310;2022-11-12T01:57:08;26.00;;;19.60;;
11681;SDS011;5897;42.640;23.310;2022-11-12T01:59:37;23.88;;;18.33;;
11681;SDS011;5897;42.640;23.310;2022-11-12T02:02:08;22.10;;;16.05;;
11681;SDS011;5897;42.640;23.310;2022-11-12T02:04:36;17.90;;;13.85;;
11681;SDS011;5897;42.640;23.310;2022-11-12T02:07:05;21.58;;;15.40;;
11681;SDS011;5897;42.640;23.310;2022-11-12T02:09:33;20.75;;;15.07;;
11681;SDS011;5897;42.640;23.310;2022-11-12T02:12:01;20.65;;;15.25;;
11681;SDS011;5897;42.640;23.310;2022-11-12T02:14:28;22.70;;;16.17;;
11681;SDS011;5897;42.640;23.310;2022-11-12T02:16:55;17.13;;;10.88;;
11681;SDS011;5897;42.640;23.310;2022-11-12T02:19:23;14.93;;;11.25;;
11681;SDS011;5897;42.640;23.310;2022-11-12T02:21:51;16.40;;;11.88;;
11681;SDS011;5897;42.640;23.310;2022-11-12T02:24:31;16.52;;;11.98;;
11681;SDS011;5897;42.640;23.310;2022-11-12T02:27:00;15.00;;;11.75;;
11681;SDS011;5897;42.640;23.310;2022-11-12T02:29:29;15.20;;;12.20;;
11681;SDS011;5897;42.640;23.310;2022-11-12T02:31:56;13.90;;;11.45;;
11681;SDS011;5897;42.640;23.310;2022-11-12T02:34:22;20.27;;;12.38;;
11681;SDS011;5897;42.640;23.310;2022-11-12T02:36:49;15.93;;;12.60;;
11681;SDS011;5897;42.640;23.310;2022-11-12T02:39:17;15.15;;;11.65;;
11681;SDS011;5897;42.640;23.310;2022-11-12T02:41:44;16.02;;;11.32;;
11681;SDS011;5897;42.640;23.310;2022-11-12T02:44:11;15.52;;;11.52;;
11681;SDS011;5897;42.640;23.310;2022-11-12T02:46:37;13.98;;;11.18;;
11681;SDS011;5897;42.640;23.310;2022-11-12T02:49:04;13.52;;;11.00;;
11681;SDS011;5897;42.640;23.310;2022-11-12T02:51:31;15.10;;;11.40;;
11681;SDS011;5897;42.640;23.310;2022-11-12T02:53:58;15.38;;;11.88;;
11681;SDS011;5897;42.640;23.310;2022-11-12T02:56:26;16.48;;;11.70;;
11681;SDS011;5897;42.640;23.310;2022-11-12T02:58:52;16.52;;;12.50;;
11681;SDS011;5897;42.640;23.310;2022-11-12T03:01:19;17.05;;;12.65;;
11681;SDS011;5897;42.640;23.310;2022-11-12T03:03:46;15.35;;;11.60;;
11681;SDS011;5897;42.640;23.310;2022-11-12T03:06:13;13.70;;;10.85;;
11681;SDS011;5897;42.640;23.310;2022-11-12T03:08:40;14.55;;;11.77;;
11681;SDS011;5897;42.640;23.310;2022-11-12T03:11:07;17.38;;;13.05;;
11681;SDS011;5897;42.640;23.310;2022-11-12T03:13:36;13.00;;;9.77;;
11681;SDS011;5897;42.640;23.310;2022-11-12T03:16:03;9.55;;;7.63;;
11681;SDS011;5897;42.640;23.310;2022-11-12T03:18:31;8.10;;;6.60;;
11681;SDS011;5897;42.640;23.310;2022-11-12T03:20:57;7.40;;;6.13;;
11681;SDS011;5897;42.640;23.310;2022-11-12T03:23:24;6.25;;;4.95;;
11681;SDS011;5897;42.640;23.310;2022-11-12T03:25:52;6.05;;;4.88;;
11681;SDS011;5897;42.640;23.310;2022-11-12T03:28:19;4.75;;;4.30;;
11681;SDS011;5897;42.640;23.310;2022-11-12T03:30:47;4.07;;;3.67;;
11681;SDS011;5897;42.640;23.310;2022-11-12T03:33:14;4.85;;;3.70;;
11681;SDS011;5897;42.640;23.310;2022-11-12T03:35:41;6.90;;;5.38;;
11681;SDS011;5897;42.640;23.310;2022-11-12T03:38:08;10.27;;;8.10;;
11681;SDS011;5897;42.640;23.310;2022-11-12T03:40:35;13.40;;;10.77;;
11681;SDS011;5897;42.640;23.310;2022-11-12T03:43:02;14.85;;;11.63;;
11681;SDS011;5897;42.640;23.310;2022-11-12T03:45:28;18.95;;;13.15;;
11681;SDS011;5897;42.640;23.310;2022-11-12T03:47:57;17.17;;;13.50;;
11681;SDS011;5897;42.640;23.310;2022-11-12T03:50:24;18.40;;;13.70;;
11681;SDS011;5897;42.640;23.310;2022-11-12T03:52:53;18.20;;;13.10;;
11681;SDS011;5897;42.640;23.310;2022-11-12T03:55:22;17.00;;;12.98;;
11681;SDS011;5897;42.640;23.310;2022-11-12T03:57:50;15.60;;;12.38;;
11681;SDS011;5897;42.640;23.310;2022-11-12T04:00:18;17.13;;;12.20;;
11681;SDS011;5897;42.640;23.310;2022-11-12T04:02:45;16.52;;;12.45;;
11681;SDS011;5897;42.640;23.310;2022-11-12T04:05:14;15.38;;;11.85;;
11681;SDS011;5897;42.640;23.310;2022-11-12T04:07:58;16.95;;;12.52;;
11681;SDS011;5897;42.640;23.310;2022-11-12T04:10:44;16.27;;;12.00;;
11681;SDS011;5897;42.640;23.310;2022-11-12T04:13:10;15.23;;;11.55;;
11681;SDS011;5897;42.640;23.310;2022-11-12T04:15:53;16.55;;;12.07;;
11681;SDS011;5897;42.640;23.310;2022-11-12T04:18:41;13.60;;;11.30;;
11681;SDS011;5897;42.640;23.310;2022-11-12T04:21:29;14.35;;;10.63;;
11681;SDS011;5897;42.640;23.310;2022-11-12T04:24:14;18.58;;;12.40;;
11681;SDS011;5897;42.640;23.310;2022-11-12T04:26:59;14.75;;;12.32;;
11681;SDS011;5897;42.640;23.310;2022-11-12T04:29:26;15.77;;;12.27;;
11681;SDS011;5897;42.640;23.310;2022-11-12T04:32:10;18.00;;;12.98;;
11681;SDS011;5897;42.640;23.310;2022-11-12T04:34:37;22.08;;;15.52;;
11681;SDS011;5897;42.640;23.310;2022-11-12T04:37:05;13.98;;;9.40;;
11681;SDS011;5897;42.640;23.310;2022-11-12T04:39:32;10.55;;;8.40;;
11681;SDS011;5897;42.640;23.310;2022-11-12T04:41:59;11.82;;;9.25;;
11681;SDS011;5897;42.640;23.310;2022-11-12T04:44:43;7.13;;;6.03;;
11681;SDS011;5897;42.640;23.310;2022-11-12T04:47:25;7.00;;;5.80;;
11681;SDS011;5897;42.640;23.310;2022-11-12T04:49:53;7.68;;;6.68;;
11681;SDS011;5897;42.640;23.310;2022-11-12T04:52:22;8.60;;;6.95;;
11681;SDS011;5897;42.640;23.310;2022-11-12T04:54:49;9.50;;;7.00;;
11681;SDS011;5897;42.640;23.310;2022-11-12T04:57:16;9.00;;;7.13;;
11681;SDS011;5897;42.640;23.310;2022-11-12T04:59:43;10.45;;;8.65;;
11681;SDS011;5897;42.640;23.310;2022-11-12T05:02:09;10.57;;;8.40;;
11681;SDS011;5897;42.640;23.310;2022-11-12T05:04:36;11.35;;;8.43;;
11681;SDS011;5897;42.640;23.310;2022-11-12T05:07:03;12.38;;;10.10;;
11681;SDS011;5897;42.640;23.310;2022-11-12T05:09:31;21.38;;;15.20;;
11681;SDS011;5897;42.640;23.310;2022-11-12T05:11:58;11.90;;;9.90;;
11681;SDS011;5897;42.640;23.310;2022-11-12T05:14:25;14.02;;;9.52;;
11681;SDS011;5897;42.640;23.310;2022-11-12T05:16:51;12.90;;;10.00;;
11681;SDS011;5897;42.640;23.310;2022-11-12T05:19:18;10.90;;;9.30;;
11681;SDS011;5897;42.640;23.310;2022-11-12T05:21:45;12.05;;;8.98;;
11681;SDS011;5897;42.640;23.310;2022-11-12T05:24:29;8.40;;;7.47;;
11681;SDS011;5897;42.640;23.310;2022-11-12T05:26:57;9.02;;;7.28;;
11681;SDS011;5897;42.640;23.310;2022-11-12T05:29:24;9.88;;;8.88;;
11681;SDS011;5897;42.640;23.310;2022-11-12T05:31:51;11.93;;;9.75;;
11681;SDS011;5897;42.640;23.310;2022-11-12T05:34:18;10.38;;;8.60;;
11681;SDS011;5897;42.640;23.310;2022-11-12T05:36:44;9.43;;;7.80;;
11681;SDS011;5897;42.640;23.310;2022-11-12T05:39:11;9.07;;;7.95;;
11681;SDS011;5897;42.640;23.310;2022-11-12T05:41:38;13.30;;;9.07;;
11681;SDS011;5897;42.640;23.310;2022-11-12T05:44:06;8.70;;;7.63;;
11681;SDS011;5897;42.640;23.310;2022-11-12T05:46:33;8.52;;;7.00;;
11681;SDS011;5897;42.640;23.310;2022-11-12T05:48:59;10.40;;;8.30;;
11681;SDS011;5897;42.640;23.310;2022-11-12T05:51:26;10.45;;;8.00;;
11681;SDS011;5897;42.640;23.310;2022-11-12T05:53:53;10.35;;;7.90;;
11681;SDS011;5897;42.640;23.310;2022-11-12T05:56:20;10.30;;;6.45;;
11681;SDS011;5897;42.640;23.310;2022-11-12T05:58:46;9.25;;;7.03;;
11681;SDS011;5897;42.640;23.310;2022-11-12T06:01:14;7.20;;;5.68;;
11681;SDS011;5897;42.640;23.310;2022-11-12T06:03:41;6.25;;;5.30;;
11681;SDS011;5897;42.640;23.310;2022-11-12T06:06:08;7.45;;;5.57;;
11681;SDS011;5897;42.640;23.310;2022-11-12T06:08:35;7.35;;;5.63;;
11681;SDS011;5897;42.640;23.310;2022-11-12T06:11:01;6.32;;;5.60;;
11681;SDS011;5897;42.640;23.310;2022-11-12T06:13:28;7.05;;;5.88;;
11681;SDS011;5897;42.640;23.310;2022-11-12T06:15:55;8.85;;;5.80;;
11681;SDS011;5897;42.640;23.310;2022-11-12T06:18:24;7.57;;;5.63;;
11681;SDS011;5897;42.640;23.310;2022-11-12T06:20:51;5.25;;;4.60;;
11681;SDS011;5897;42.640;23.310;2022-11-12T06:23:31;5.55;;;4.50;;
11681;SDS011;5897;42.640;23.310;2022-11-12T06:25:58;5.07;;;4.57;;
11681;SDS011;5897;42.640;23.310;2022-11-12T06:28:25;4.78;;;4.28;;
11681;SDS011;5897;42.640;23.310;2022-11-12T06:30:52;5.25;;;4.60;;
11681;SDS011;5897;42.640;23.310;2022-11-12T06:33:19;5.00;;;4.40;;
11681;SDS011;5897;42.640;23.310;2022-11-12T06:35:47;5.53;;;4.65;;
11681;SDS011;5897;42.640;23.310;2022-11-12T06:38:22;5.05;;;4.55;;
11681;SDS011;5897;42.640;23.310;2022-11-12T06:40:48;6.65;;;5.32;;
11681;SDS011;5897;42.640;23.310;2022-11-12T06:43:15;4.72;;;4.22;;
11681;SDS011;5897;42.640;23.310;2022-11-12T06:45:42;5.03;;;4.47;;
11681;SDS011;5897;42.640;23.310;2022-11-12T06:48:09;5.53;;;4.78;;
11681;SDS011;5897;42.640;23.310;2022-11-12T06:50:35;5.20;;;4.03;;
11681;SDS011;5897;42.640;23.310;2022-11-12T06:53:03;5.07;;;4.22;;
11681;SDS011;5897;42.640;23.310;2022-11-12T06:55:30;5.65;;;4.55;;
11681;SDS011;5897;42.640;23.310;2022-11-12T06:57:57;4.72;;;4.30;;
11681;SDS011;5897;42.640;23.310;2022-11-12T07:00:24;5.15;;;4.65;;
11681;SDS011;5897;42.640;23.310;2022-11-12T07:02:51;4.82;;;4.32;;
11681;SDS011;5897;42.640;23.310;2022-11-12T07:05:18;6.68;;;5.20;;
11681;SDS011;5897;42.640;23.310;2022-11-12T07:07:45;6.53;;;5.28;;
11681;SDS011;5897;42.640;23.310;2022-11-12T07:10:13;5.30;;;4.60;;
11681;SDS011;5897;42.640;23.310;2022-11-12T07:12:40;6.43;;;4.43;;
11681;SDS011;5897;42.640;23.310;2022-11-12T07:15:07;5.32;;;4.82;;
11681;SDS011;5897;42.640;23.310;2022-11-12T07:17:34;7.10;;;5.40;;
11681;SDS011;5897;42.640;23.310;2022-11-12T07:20:01;6.15;;;4.93;;
11681;SDS011;5897;42.640;23.310;2022-11-12T07:22:29;4.47;;;4.07;;
11681;SDS011;5897;42.640;23.310;2022-11-12T07:24:57;5.35;;;4.85;;
11681;SDS011;5897;42.640;23.310;2022-11-12T07:27:25;6.38;;;4.55;;
11681;SDS011;5897;42.640;23.310;2022-11-12T07:29:54;5.25;;;4.57;;
11681;SDS011;5897;42.640;23.310;2022-11-12T07:32:21;5.25;;;4.75;;
11681;SDS011;5897;42.640;23.310;2022-11-12T07:34:48;6.55;;;5.40;;
11681;SDS011;5897;42.640;23.310;2022-11-12T07:37:15;7.38;;;5.45;;
11681;SDS011;5897;42.640;23.310;2022-11-12T07:39:42;5.60;;;4.93;;
11681;SDS011;5897;42.640;23.310;2022-11-12T07:42:08;7.25;;;5.45;;
11681;SDS011;5897;42.640;23.310;2022-11-12T07:44:36;5.40;;;4.70;;
11681;SDS011;5897;42.640;23.310;2022-11-12T07:47:03;6.13;;;5.30;;
11681;SDS011;5897;42.640;23.310;2022-11-12T07:49:30;6.45;;;5.25;;
11681;SDS011;5897;42.640;23.310;2022-11-12T07:51:57;7.97;;;5.20;;
11681;SDS011;5897;42.640;23.310;2022-11-12T07:54:23;7.35;;;5.10;;
11681;SDS011;5897;42.640;23.310;2022-11-12T07:56:50;10.45;;;5.63;;
11681;SDS011;5897;42.640;23.310;2022-11-12T07:59:17;6.78;;;5.20;;
11681;SDS011;5897;42.640;23.310;2022-11-12T08:01:45;10.45;;;5.70;;
11681;SDS011;5897;42.640;23.310;2022-11-12T08:04:11;7.32;;;5.80;;
11681;SDS011;5897;42.640;23.310;2022-11-12T08:06:38;5.35;;;4.85;;
11681;SDS011;5897;42.640;23.310;2022-11-12T08:09:05;6.10;;;4.82;;
11681;SDS011;5897;42.640;23.310;2022-11-12T08:11:34;6.03;;;4.72;;
11681;SDS011;5897;42.640;23.310;2022-11-12T08:14:01;5.90;;;4.90;;
11681;SDS011;5897;42.640;23.310;2022-11-12T08:16:28;6.35;;;5.38;;
11681;SDS011;5897;42.640;23.310;2022-11-12T08:18:56;6.80;;;5.00;;
11681;SDS011;5897;42.640;23.310;2022-11-12T08:21:23;8.55;;;5.90;;
11681;SDS011;5897;42.640;23.310;2022-11-12T08:23:49;12.30;;;8.75;;
11681;SDS011;5897;42.640;23.310;2022-11-12T08:26:17;8.25;;;6.65;;
11681;SDS011;5897;42.640;23.310;2022-11-12T08:28:44;6.93;;;5.28;;
11681;SDS011;5897;42.640;23.310;2022-11-12T08:31:12;7.30;;;5.82;;
11681;SDS011;5897;42.640;23.310;2022-11-12T08:33:40;7.10;;;5.72;;
11681;SDS011;5897;42.640;23.310;2022-11-12T08:36:10;5.72;;;5.18;;
11681;SDS011;5897;42.640;23.310;2022-11-12T08:38:38;15.65;;;6.78;;
11681;SDS011;5897;42.640;23.310;2022-11-12T08:41:06;10.75;;;7.50;;
11681;SDS011;5897;42.640;23.310;2022-11-12T08:43:34;7.35;;;6.60;;
11681;SDS011;5897;42.640;23.310;2022-11-12T08:46:01;8.73;;;5.93;;
11681;SDS011;5897;42.640;23.310;2022-11-12T08:48:28;8.07;;;7.28;;
11681;SDS011;5897;42.640;23.310;2022-11-12T08:50:56;6.35;;;5.53;;
11681;SDS011;5897;42.640;23.310;2022-11-12T08:53:24;10.57;;;5.82;;
11681;SDS011;5897;42.640;23.310;2022-11-12T08:55:52;9.10;;;5.72;;
11681;SDS011;5897;42.640;23.310;2022-11-12T08:58:19;8.40;;;5.35;;
11681;SDS011;5897;42.640;23.310;2022-11-12T09:00:46;9.00;;;5.40;;
11681;SDS011;5897;42.640;23.310;2022-11-12T09:03:15;6.50;;;5.65;;
11681;SDS011;5897;42.640;23.310;2022-11-12T09:05:43;6.78;;;5.05;;
11681;SDS011;5897;42.640;23.310;2022-11-12T09:08:11;10.15;;;5.20;;
11681;SDS011;5897;42.640;23.310;2022-11-12T09:10:40;8.45;;;5.05;;
11681;SDS011;5897;42.640;23.310;2022-11-12T09:13:07;6.47;;;5.00;;
11681;SDS011;5897;42.640;23.310;2022-11-12T09:15:34;7.40;;;5.95;;
11681;SDS011;5897;42.640;23.310;2022-11-12T09:18:02;5.93;;;4.35;;
11681;SDS011;5897;42.640;23.310;2022-11-12T09:20:30;9.77;;;5.40;;
11681;SDS011;5897;42.640;23.310;2022-11-12T09:22:57;7.07;;;5.25;;
11681;SDS011;5897;42.640;23.310;2022-11-12T09:25:24;6.05;;;4.50;;
11681;SDS011;5897;42.640;23.310;2022-11-12T09:27:53;6.72;;;5.25;;
11681;SDS011;5897;42.640;23.310;2022-11-12T09:30:20;6.85;;;4.63;;
11681;SDS011;5897;42.640;23.310;2022-11-12T09:32:46;5.68;;;4.57;;
11681;SDS011;5897;42.640;23.310;2022-11-12T09:35:13;7.70;;;5.03;;
11681;SDS011;5897;42.640;23.310;2022-11-12T09:37:40;5.80;;;4.72;;
11681;SDS011;5897;42.640;23.310;2022-11-12T09:40:09;4.97;;;4.50;;
11681;SDS011;5897;42.640;23.310;2022-11-12T09:42:43;5.03;;;4.53;;
11681;SDS011;5897;42.640;23.310;2022-11-12T09:45:14;5.10;;;4.60;;
11681;SDS011;5897;42.640;23.310;2022-11-12T09:47:46;5.22;;;4.10;;
11681;SDS011;5897;42.640;23.310;2022-11-12T09:50:19;5.35;;;4.15;;
11681;SDS011;5897;42.640;23.310;2022-11-12T09:52:54;4.60;;;4.20;;
11681;SDS011;5897;42.640;23.310;2022-11-12T09:55:28;5.18;;;3.63;;
11681;SDS011;5897;42.640;23.310;2022-11-12T09:57:59;4.57;;;4.10;;
11681;SDS011;5897;42.640;23.310;2022-11-12T10:00:27;5.68;;;4.38;;
11681;SDS011;5897;42.640;23.310;2022-11-12T10:02:57;4.22;;;3.83;;
11681;SDS011;5897;42.640;23.310;2022-11-12T10:05:29;4.20;;;3.50;;
11681;SDS011;5897;42.640;23.310;2022-11-12T10:08:02;6.35;;;3.90;;
11681;SDS011;5897;42.640;23.310;2022-11-12T10:10:40;6.25;;;3.55;;
11681;SDS011;5897;42.640;23.310;2022-11-12T10:13:20;3.70;;;3.22;;
11681;SDS011;5897;42.640;23.310;2022-11-12T10:16:01;4.80;;;3.72;;
11681;SDS011;5897;42.640;23.310;2022-11-12T10:19:02;4.47;;;3.75;;
11681;SDS011;5897;42.640;23.310;2022-11-12T10:21:40;5.18;;;3.53;;
11681;SDS011;5897;42.640;23.310;2022-11-12T10:24:13;6.15;;;4.30;;
11681;SDS011;5897;42.640;23.310;2022-11-12T10:26:39;5.60;;;4.50;;
11681;SDS011;5897;42.640;23.310;2022-11-12T10:29:11;7.13;;;5.32;;
11681;SDS011;5897;42.640;23.310;2022-11-12T10:31:45;8.80;;;7.57;;
11681;SDS011;5897;42.640;23.310;2022-11-12T10:34:15;4.70;;;3.90;;
11681;SDS011;5897;42.640;23.310;2022-11-12T10:36:44;3.70;;;3.38;;
11681;SDS011;5897;42.640;23.310;2022-11-12T10:39:29;4.47;;;3.28;;
11681;SDS011;5897;42.640;23.310;2022-11-12T10:42:04;3.88;;;2.97;;
11681;SDS011;5897;42.640;23.310;2022-11-12T10:44:32;3.70;;;3.28;;
11681;SDS011;5897;42.640;23.310;2022-11-12T10:47:25;4.35;;;3.63;;
11681;SDS011;5897;42.640;23.310;2022-11-12T10:52:56;6.30;;;4.82;;
11681;SDS011;5897;42.640;23.310;2022-11-12T10:55:25;10.80;;;8.63;;
11681;SDS011;5897;42.640;23.310;2022-11-12T10:58:12;4.30;;;3.90;;
11681;SDS011;5897;42.640;23.310;2022-11-12T11:00:53;4.88;;;3.95;;
11681;SDS011;5897;42.640;23.310;2022-11-12T11:03:25;4.93;;;4.10;;
11681;SDS011;5897;42.640;23.310;2022-11-12T11:05:55;4.30;;;3.90;;
11681;SDS011;5897;42.640;23.310;2022-11-12T11:08:39;4.68;;;3.90;;
11681;SDS011;5897;42.640;23.310;2022-11-12T11:11:16;5.85;;;3.88;;
11681;SDS011;5897;42.640;23.310;2022-11-12T11:13:46;4.47;;;4.00;;
11681;SDS011;5897;42.640;23.310;2022-11-12T11:16:14;5.28;;;4.07;;
11681;SDS011;5897;42.640;23.310;2022-11-12T11:18:45;5.30;;;4.00;;
11681;SDS011;5897;42.640;23.310;2022-11-12T11:24:25;4.25;;;3.78;;
11681;SDS011;5897;42.640;23.310;2022-11-12T11:27:02;4.95;;;3.88;;
11681;SDS011;5897;42.640;23.310;2022-11-12T11:29:36;4.95;;;4.07;;
11681;SDS011;5897;42.640;23.310;2022-11-12T11:32:18;4.43;;;4.00;;
11681;SDS011;5897;42.640;23.310;2022-11-12T11:34:56;4.22;;;3.67;;
11681;SDS011;5897;42.640;23.310;2022-11-12T11:37:30;4.20;;;3.80;;
11681;SDS011;5897;42.640;23.310;2022-11-12T11:40:05;27.60;;;21.13;;
11681;SDS011;5897;42.640;23.310;2022-11-12T11:42:42;6.50;;;4.35;;
11681;SDS011;5897;42.640;23.310;2022-11-12T11:45:20;4.32;;;3.25;;
11681;SDS011;5897;42.640;23.310;2022-11-12T11:47:53;6.85;;;3.42;;
11681;SDS011;5897;42.640;23.310;2022-11-12T11:50:25;4.80;;;3.20;;
11681;SDS011;5897;42.640;23.310;2022-11-12T11:52:56;5.63;;;3.28;;
11681;SDS011;5897;42.640;23.310;2022-11-12T12:01:24;3.70;;;3.08;;
11681;SDS011;5897;42.640;23.310;2022-11-12T12:04:03;4.60;;;3.25;;
11681;SDS011;5897;42.640;23.310;2022-11-12T12:06:44;3.92;;;3.38;;
11681;SDS011;5897;42.640;23.310;2022-11-12T12:09:27;5.82;;;3.17;;
11681;SDS011;5897;42.640;23.310;2022-11-12T12:12:00;4.50;;;3.65;;
11681;SDS011;5897;42.640;23.310;2022-11-12T12:14:39;4.10;;;3.70;;
11681;SDS011;5897;42.640;23.310;2022-11-12T12:17:17;5.80;;;3.67;;
11681;SDS011;5897;42.640;23.310;2022-11-12T12:19:57;5.10;;;4.00;;
11681;SDS011;5897;42.640;23.310;2022-11-12T12:22:34;4.00;;;3.60;;
11681;SDS011;5897;42.640;23.310;2022-11-12T12:25:07;15.18;;;10.45;;
11681;SDS011;5897;42.640;23.310;2022-11-12T12:27:41;5.60;;;4.50;;
11681;SDS011;5897;42.640;23.310;2022-11-12T12:30:17;7.88;;;5.55;;
11681;SDS011;5897;42.640;23.310;2022-11-12T12:32:48;6.90;;;5.65;;
11681;SDS011;5897;42.640;23.310;2022-11-12T12:35:21;6.63;;;4.53;;
11681;SDS011;5897;42.640;23.310;2022-11-12T12:37:54;5.22;;;4.45;;
11681;SDS011;5897;42.640;23.310;2022-11-12T12:40:31;6.47;;;4.97;;
11681;SDS011;5897;42.640;23.310;2022-11-12T12:43:02;8.02;;;5.47;;
11681;SDS011;5897;42.640;23.310;2022-11-12T12:45:37;4.85;;;4.10;;
11681;SDS011;5897;42.640;23.310;2022-11-12T12:48:06;6.13;;;4.43;;
11681;SDS011;5897;42.640;23.310;2022-11-12T12:50:39;3.75;;;3.17;;
11681;SDS011;5897;42.640;23.310;2022-11-12T12:53:16;4.97;;;3.60;;
11681;SDS011;5897;42.640;23.310;2022-11-12T12:55:56;9.43;;;6.40;;
11681;SDS011;5897;42.640;23.310;2022-11-12T12:58:25;5.22;;;4.55;;
11681;SDS011;5897;42.640;23.310;2022-11-12T13:00:55;11.23;;;7.30;;
11681;SDS011;5897;42.640;23.310;2022-11-12T13:03:45;5.07;;;3.97;;
11681;SDS011;5897;42.640;23.310;2022-11-12T13:06:20;4.00;;;3.60;;
11681;SDS011;5897;42.640;23.310;2022-11-12T13:08:50;5.35;;;4.32;;
11681;SDS011;5897;42.640;23.310;2022-11-12T13:14:43;4.10;;;3.67;;
11681;SDS011;5897;42.640;23.310;2022-11-12T13:20:16;3.53;;;3.22;;
11681;SDS011;5897;42.640;23.310;2022-11-12T13:23:01;7.20;;;4.07;;
11681;SDS011;5897;42.640;23.310;2022-11-12T13:25:30;6.97;;;5.35;;
11681;SDS011;5897;42.640;23.310;2022-11-12T13:28:07;4.25;;;3.85;;
11681;SDS011;5897;42.640;23.310;2022-11-12T13:33:30;5.75;;;5.13;;
11681;SDS011;5897;42.640;23.310;2022-11-12T13:38:53;4.22;;;3.83;;
11681;SDS011;5897;42.640;23.310;2022-11-12T13:41:33;4.75;;;4.07;;
11681;SDS011;5897;42.640;23.310;2022-11-12T13:44:18;4.10;;;3.65;;
11681;SDS011;5897;42.640;23.310;2022-11-12T13:46:45;4.15;;;3.75;;
11681;SDS011;5897;42.640;23.310;2022-11-12T13:49:15;4.53;;;4.07;;
11681;SDS011;5897;42.640;23.310;2022-11-12T13:51:43;4.30;;;3.92;;
11681;SDS011;5897;42.640;23.310;2022-11-12T13:54:23;6.10;;;4.63;;
11681;SDS011;5897;42.640;23.310;2022-11-12T13:57:01;7.78;;;5.40;;
11681;SDS011;5897;42.640;23.310;2022-11-12T13:59:38;5.53;;;4.63;;
11681;SDS011;5897;42.640;23.310;2022-11-12T14:02:11;6.38;;;5.20;;
11681;SDS011;5897;42.640;23.310;2022-11-12T14:04:45;6.88;;;5.50;;
11681;SDS011;5897;42.640;23.310;2022-11-12T14:07:16;4.95;;;4.45;;
11681;SDS011;5897;42.640;23.310;2022-11-12T14:09:59;5.28;;;4.55;;
11681;SDS011;5897;42.640;23.310;2022-11-12T14:12:47;5.75;;;5.10;;
11681;SDS011;5897;42.640;23.310;2022-11-12T14:15:32;7.28;;;4.95;;
11681;SDS011;5897;42.640;23.310;2022-11-12T14:18:16;4.88;;;3.97;;
11681;SDS011;5897;42.640;23.310;2022-11-12T14:20:50;5.25;;;4.20;;
11681;SDS011;5897;42.640;23.310;2022-11-12T14:23:18;4.30;;;3.80;;
11681;SDS011;5897;42.640;23.310;2022-11-12T14:25:46;4.68;;;4.20;;
11681;SDS011;5897;42.640;23.310;2022-11-12T14:28:23;4.53;;;4.10;;
11681;SDS011;5897;42.640;23.310;2022-11-12T14:30:54;8.50;;;5.32;;
11681;SDS011;5897;42.640;23.310;2022-11-12T14:33:22;7.50;;;5.72;;
11681;SDS011;5897;42.640;23.310;2022-11-12T14:35:51;30.73;;;23.65;;
11681;SDS011;5897;42.640;23.310;2022-11-12T14:38:19;20.88;;;16.90;;
11681;SDS011;5897;42.640;23.310;2022-11-12T14:40:49;7.25;;;6.18;;
11681;SDS011;5897;42.640;23.310;2022-11-12T14:43:19;5.90;;;4.53;;
11681;SDS011;5897;42.640;23.310;2022-11-12T14:45:51;4.25;;;3.85;;
11681;SDS011;5897;42.640;23.310;2022-11-12T14:48:19;9.20;;;8.30;;
11681;SDS011;5897;42.640;23.310;2022-11-12T14:50:47;6.97;;;6.28;;
11681;SDS011;5897;42.640;23.310;2022-11-12T14:53:18;10.35;;;9.45;;
11681;SDS011;5897;42.640;23.310;2022-11-12T14:55:49;20.48;;;18.83;;
11681;SDS011;5897;42.640;23.310;2022-11-12T14:58:18;4.82;;;4.32;;
11681;SDS011;5897;42.640;23.310;2022-11-12T15:00:48;7.65;;;6.82;;
11681;SDS011;5897;42.640;23.310;2022-11-12T15:03:18;6.00;;;5.45;;
11681;SDS011;5897;42.640;23.310;2022-11-12T15:05:55;5.88;;;5.28;;
11681;SDS011;5897;42.640;23.310;2022-11-12T15:08:29;7.15;;;6.45;;
11681;SDS011;5897;42.640;23.310;2022-11-12T15:13:50;7.47;;;6.43;;
11681;SDS011;5897;42.640;23.310;2022-11-12T15:16:24;6.65;;;5.80;;
11681;SDS011;5897;42.640;23.310;2022-11-12T15:19:06;5.78;;;5.18;;
11681;SDS011;5897;42.640;23.310;2022-11-12T15:21:45;5.00;;;4.50;;
11681;SDS011;5897;42.640;23.310;2022-11-12T15:24:18;6.00;;;4.38;;